Etusivu
METAR-TAF:

METAR-TAF

Lentoasemat :

Vamdrup

Kolding, Tanska

Leveyspiiri: 55-26N, Pituuspiiri: 009-20E, korkeus merenpinnasta: 44 m

Tämänhetkinen sää

Tämä raportti tehtiin 37 minuuttia sitten, kello 23.20 UTC
Tuuli 17 kn idästä
Lämpötila 6°C
Kosteus 75%
Ilmanpaine 1021 hPa

METAR: EKVD 202320Z AUTO 09017KT //// ///////// 06/02 Q1021

Aika: 00:57 (23:57 UTC)

Sääennuste

Tämä raportti tehtiin 8 tuntia ja 51 minuuttia sitten, kello 15.06 UTC
Ennuste voimassa 20. päivästä klo 15 UTC - 20. päivään klo 17 UTC
Tuuli 17 kn idästä
Näkyvyys 10 km tai enemmän
Hajonneita pilviä 2000 ft:n korkeudessa
Ajoittain
20. päivästä klo 15 UTC - 20. päivään klo 17 UTC
Tuuli 18 kn idästä puuskistuen 28 kn:hen
Hajonneita pilviä 1200 ft:n korkeudessa, Kasvava cumulus-pilvi.
heikkoja vesikuuroja

TAF: EKVD 201506Z 2015/2017 08017KT 9999 BKN020 TEMPO 2015/2017 08018G28KT -SHRA BKN012TCU

Säähavainnot ja -ennusteet yli 4000 lentoasemalta (METAR- ja TAF-raportit).

Käytössä olevat sääasemat on merkitty karttaan keltaisilla ja punaisilla pisteillä.

Aseta hiiri pisteen päälle nähdäksesi sääaseman nimen.

Klikkaa sitten nähdäksesi säähavainnot ja -ennusteet.

Kartan vaihtaminen: klikkaa mustalla rastilla varustettuja vihreitä pisteitä, niin voit zoomata sisään; viivalla varustettua vihreää pistettä, niin voit zoomata ulos tai vihreitä nuolia, niin pääset viereisille kartoille.


METAR-TAF: